Undaunted — WDB8103 — position and weather

sailwx.info

Track history (hours):
 
Tides and Currents Weather Stations Pressure Air Temp Water Temp Dewpoint Dewpoint Depression Visibility Wind Speed Wind Dir Waves Ship Positions

Undaunted

Owner: PERE MARQUETTE SHIPPING COMPANY, LUDINGTON, MI. More information available from US FCC via Universal Licensing System and Coast Guard Vessel Documentation Center.

Last reported at 2017-Sep-19 13:50 UTC. Time now 2017-Sep-21 15:45 UTC.
Position N 45°04' W 086°11'.

Length 24 m; draft 6 m.

Type: Cargo ship. MMSI: 366780000.

Date/timePositionNaut miles runAvg speedWind from/ knotsBaromVisibWave heightAir tempDewpointWater temp
2017-Sep-19 13:50N 45°04' W 086°11'3 8.0
2017-Sep-19 13:30N 45°07' W 086°10'5 8.2
2017-Sep-19 12:57N 45°11' W 086°08'4 8.0
2017-Sep-19 12:30N 45°14' W 086°06'4 7.9
2017-Sep-19 12:00N 45°18' W 086°04'4 7.9
2017-Sep-19 11:28N 45°22' W 086°02'4 8.0
2017-Sep-19 11:00N 45°26' W 085°60'4 8.1
2017-Sep-19 10:30N 45°29' W 085°58'12 8.1
2017-Sep-19 08:58N 45°42' W 085°54'4 8.3
2017-Sep-19 08:29N 45°46' W 085°54'10 8.3
2017-Sep-19 07:19N 45°55' W 085°53'2 7.6
2017-Sep-19 07:00N 45°58' W 085°53'1 0.9
2017-Sep-19 06:23N 45°58' W 085°52'0 0.0
2017-Sep-19 05:05N 45°58' W 085°52'0 0.0
2017-Sep-19 04:50N 45°58' W 085°52'0 0.0
2017-Sep-19 04:26N 45°58' W 085°52'0 0.0
2017-Sep-19 03:59N 45°58' W 085°52'0 0.0
2017-Sep-19 03:29N 45°58' W 085°52'1 2.0
2017-Sep-19 03:00N 45°57' W 085°52'5 9.3
2017-Sep-19 02:30N 45°56' W 085°46'5 9.5
2017-Sep-19 02:00N 45°54' W 085°39'5 9.7
2017-Sep-19 01:30N 45°53' W 085°32'5 9.7
2017-Sep-19 01:00N 45°53' W 085°26'5 9.6
2017-Sep-19 00:30N 45°52' W 085°19'5 9.6
2017-Sep-19 00:01N 45°52' W 085°12'5 9.6
2017-Sep-18 23:30N 45°51' W 085°05'5 9.7
2017-Sep-18 23:00N 45°50' W 084°58'5 9.6
2017-Sep-18 22:30N 45°50' W 084°51'5 9.6
2017-Sep-18 22:00N 45°49' W 084°45'5 9.2
2017-Sep-18 21:30N 45°47' W 084°39'5 9.5
2017-Sep-18 20:59N 45°44' W 084°32'4 9.4
2017-Sep-18 20:30N 45°42' W 084°27'5 9.4
2017-Sep-18 20:01N 45°41' W 084°20'5 9.2
2017-Sep-18 19:30N 45°40' W 084°14'5 9.4
2017-Sep-18 18:59N 45°37' W 084°08'5 9.5
2017-Sep-18 18:30N 45°35' W 084°02'5 9.6
2017-Sep-18 18:00N 45°33' W 083°56'5 9.4
2017-Sep-18 17:30N 45°30' W 083°51'5 9.4
2017-Sep-18 17:00N 45°28' W 083°45'5 9.4
2017-Sep-18 16:30N 45°26' W 083°39'5 9.4
2017-Sep-18 16:00N 45°24' W 083°33'22 8.7
2017-Sep-18 13:29N 45°06' W 083°15'6 6.2
2017-Sep-18 12:28N 44°60' W 083°15'5 9.4
2017-Sep-18 11:57N 45°02' W 083°21'18 1.2
2017-Sep-17 20:39N 45°19' W 083°25'2 8.1
2017-Sep-17 20:27N 45°20' W 083°27'4 7.9
2017-Sep-17 20:00N 45°23' W 083°30'4 8.1
2017-Sep-17 19:30N 45°25' W 083°36'4 8.1
2017-Sep-17 19:00N 45°27' W 083°41'4 8.1
2017-Sep-17 18:30N 45°29' W 083°46'4 8.0
2017-Sep-17 18:00N 45°31' W 083°51'4 8.1
2017-Sep-17 17:28N 45°33' W 083°56'4 8.1
2017-Sep-17 17:00N 45°34' W 084°01'4 8.1
2017-Sep-17 16:30N 45°36' W 084°06'4 8.1
2017-Sep-17 16:00N 45°38' W 084°11'4 8.3
2017-Sep-17 15:30N 45°40' W 084°16'4 8.3
2017-Sep-17 15:00N 45°41' W 084°22'4 8.6
2017-Sep-17 14:30N 45°42' W 084°28'4 8.4
2017-Sep-17 14:00N 45°44' W 084°33'4 8.3
2017-Sep-17 13:30N 45°47' W 084°38'4 8.4
2017-Sep-17 13:00N 45°49' W 084°43'4 8.5
2017-Sep-17 12:30N 45°49' W 084°49'4 8.4
2017-Sep-17 12:00N 45°49' W 084°55'4 8.2
2017-Sep-17 11:30N 45°49' W 085°01'4 8.0
2017-Sep-17 11:00N 45°50' W 085°07'4 7.1
2017-Sep-17 10:30N 45°46' W 085°09'4 8.1
2017-Sep-17 10:00N 45°43' W 085°12'4 8.3
2017-Sep-17 09:30N 45°40' W 085°15'4 8.3
2017-Sep-17 09:00N 45°36' W 085°19'4 8.4
2017-Sep-17 08:30N 45°33' W 085°22'4 8.4
2017-Sep-17 08:00N 45°29' W 085°26'4 8.5
2017-Sep-17 07:30N 45°26' W 085°30'4 8.5
2017-Sep-17 07:00N 45°22' W 085°33'4 8.4
2017-Sep-17 06:30N 45°19' W 085°37'4 8.4
2017-Sep-17 06:00N 45°16' W 085°40'4 8.3
2017-Sep-17 05:30N 45°12' W 085°44'4 8.2
2017-Sep-17 05:00N 45°09' W 085°47'  
2017-Sep-14 15:44N 44°55' W 087°35'2 7.9
2017-Sep-14 15:30N 44°57' W 087°34'9 7.9
2017-Sep-14 14:25N 45°03' W 087°25'5 8.0
2017-Sep-14 13:51N 45°06' W 087°21'16 7.8
2017-Sep-14 11:48N 45°19' W 087°07'4 8.2
2017-Sep-14 11:22N 45°21' W 087°03'3 8.2
2017-Sep-14 11:00N 45°23' W 087°00'4 8.0
2017-Sep-14 10:30N 45°26' W 086°56'4 8.1
2017-Sep-14 10:00N 45°26' W 086°50'4 7.9
2017-Sep-14 09:30N 45°26' W 086°45'4 7.9
2017-Sep-14 09:00N 45°27' W 086°39'4 7.8
2017-Sep-14 08:30N 45°27' W 086°34'4 8.1
2017-Sep-14 08:00N 45°28' W 086°28'4 8.1
2017-Sep-14 07:30N 45°28' W 086°22'4 8.1
2017-Sep-14 07:00N 45°29' W 086°16'4 8.2
2017-Sep-14 06:30N 45°29' W 086°11'4 8.2
2017-Sep-14 06:00N 45°30' W 086°05'4 8.2
2017-Sep-14 05:30N 45°31' W 085°59'4 8.1
2017-Sep-14 05:00N 45°31' W 085°53'4 8.0
2017-Sep-14 04:30N 45°32' W 085°48'4 8.1
2017-Sep-14 04:00N 45°32' W 085°42'4 8.1
2017-Sep-14 03:30N 45°33' W 085°36'4 8.0
2017-Sep-14 03:00N 45°34' W 085°30'4 8.1
2017-Sep-14 02:30N 45°36' W 085°26'4 8.2
2017-Sep-14 02:00N 45°39' W 085°21'4 8.2
2017-Sep-14 01:30N 45°41' W 085°17'4 8.2
2017-Sep-14 01:00N 45°44' W 085°12'4 7.6
2017-Sep-14 00:30N 45°47' W 085°09'3 6.7
2017-Sep-14 00:00N 45°49' W 085°06'4 8.1
2017-Sep-13 23:30N 45°49' W 085°00'4 8.2
2017-Sep-13 23:00N 45°49' W 084°54'4 8.2
2017-Sep-13 22:30N 45°49' W 084°48'4 8.0
2017-Sep-13 22:00N 45°49' W 084°43'4 7.9
2017-Sep-13 21:30N 45°47' W 084°38'4 8.0
2017-Sep-13 21:00N 45°45' W 084°33'4 8.3
2017-Sep-13 20:30N 45°43' W 084°28'4 8.4
2017-Sep-13 20:00N 45°41' W 084°22'4 8.1
2017-Sep-13 19:30N 45°41' W 084°16'4 8.4
2017-Sep-13 19:00N 45°39' W 084°11'4 8.4
2017-Sep-13 18:29N 45°37' W 084°06'4 8.5
2017-Sep-13 18:00N 45°35' W 084°01'4 8.5
2017-Sep-13 17:30N 45°33' W 083°55'4 8.5
2017-Sep-13 17:00N 45°31' W 083°50'4 8.5
2017-Sep-13 16:30N 45°29' W 083°45'4 8.5
2017-Sep-13 16:00N 45°27' W 083°39'4 8.4
2017-Sep-13 15:30N 45°25' W 083°34'4 8.4
2017-Sep-13 15:00N 45°23' W 083°29'11 8.2
2017-Sep-13 13:40N 45°14' W 083°19'9 8.1
2017-Sep-13 12:30N 45°06' W 083°14'11 7.8
2017-Sep-13 11:03N 44°54' W 083°10'0 8.2
2017-Sep-13 11:00N 44°54' W 083°10'28 0.6
2017-Sep-11 12:22N 45°22' W 083°10'4 8.1
2017-Sep-11 11:52N 45°26' W 083°11'3 8.1
2017-Sep-11 11:30N 45°29' W 083°12'4 8.3
2017-Sep-11 11:00N 45°33' W 083°12'4 8.3
2017-Sep-11 10:29N 45°37' W 083°13'4 8.3
2017-Sep-11 10:00N 45°41' W 083°13'24 7.5
2017-Sep-11 06:47N 46°04' W 083°25'  
Track history (hours):
 
Tides and Currents Weather Stations Pressure Air Temp Water Temp Dewpoint Dewpoint Depression Visibility Wind Speed Wind Dir Waves Ship Positions

Undaunted

Owner: PERE MARQUETTE SHIPPING COMPANY, LUDINGTON, MI. More information available from US FCC via Universal Licensing System and Coast Guard Vessel Documentation Center.

Last reported at 2017-Sep-19 13:50 UTC. Time now 2017-Sep-21 15:45 UTC.
Position N 45°04' W 086°11'.

Length 24 m; draft 6 m.

Type: Cargo ship. MMSI: 366780000.

Date/timePositionNaut miles runAvg speedWind from/ knotsBaromVisibWave heightAir tempDewpointWater temp
2017-Sep-19 13:50N 45°04' W 086°11'3 8.0
2017-Sep-19 13:30N 45°07' W 086°10'5 8.2
2017-Sep-19 12:57N 45°11' W 086°08'4 8.0
2017-Sep-19 12:30N 45°14' W 086°06'4 7.9
2017-Sep-19 12:00N 45°18' W 086°04'4 7.9
2017-Sep-19 11:28N 45°22' W 086°02'4 8.0
2017-Sep-19 11:00N 45°26' W 085°60'4 8.1
2017-Sep-19 10:30N 45°29' W 085°58'12 8.1
2017-Sep-19 08:58N 45°42' W 085°54'4 8.3
2017-Sep-19 08:29N 45°46' W 085°54'10 8.3
2017-Sep-19 07:19N 45°55' W 085°53'2 7.6
2017-Sep-19 07:00N 45°58' W 085°53'1 0.9
2017-Sep-19 06:23N 45°58' W 085°52'0 0.0
2017-Sep-19 05:05N 45°58' W 085°52'0 0.0
2017-Sep-19 04:50N 45°58' W 085°52'0 0.0
2017-Sep-19 04:26N 45°58' W 085°52'0 0.0
2017-Sep-19 03:59N 45°58' W 085°52'0 0.0
2017-Sep-19 03:29N 45°58' W 085°52'1 2.0
2017-Sep-19 03:00N 45°57' W 085°52'5 9.3
2017-Sep-19 02:30N 45°56' W 085°46'5 9.5
2017-Sep-19 02:00N 45°54' W 085°39'5 9.7
2017-Sep-19 01:30N 45°53' W 085°32'5 9.7
2017-Sep-19 01:00N 45°53' W 085°26'5 9.6
2017-Sep-19 00:30N 45°52' W 085°19'5 9.6
2017-Sep-19 00:01N 45°52' W 085°12'5 9.6
2017-Sep-18 23:30N 45°51' W 085°05'5 9.7
2017-Sep-18 23:00N 45°50' W 084°58'5 9.6
2017-Sep-18 22:30N 45°50' W 084°51'5 9.6
2017-Sep-18 22:00N 45°49' W 084°45'5 9.2
2017-Sep-18 21:30N 45°47' W 084°39'5 9.5
2017-Sep-18 20:59N 45°44' W 084°32'4 9.4
2017-Sep-18 20:30N 45°42' W 084°27'5 9.4
2017-Sep-18 20:01N 45°41' W 084°20'5 9.2
2017-Sep-18 19:30N 45°40' W 084°14'5 9.4
2017-Sep-18 18:59N 45°37' W 084°08'5 9.5
2017-Sep-18 18:30N 45°35' W 084°02'5 9.6
2017-Sep-18 18:00N 45°33' W 083°56'5 9.4
2017-Sep-18 17:30N 45°30' W 083°51'5 9.4
2017-Sep-18 17:00N 45°28' W 083°45'5 9.4
2017-Sep-18 16:30N 45°26' W 083°39'5 9.4
2017-Sep-18 16:00N 45°24' W 083°33'22 8.7
2017-Sep-18 13:29N 45°06' W 083°15'6 6.2
2017-Sep-18 12:28N 44°60' W 083°15'5 9.4
2017-Sep-18 11:57N 45°02' W 083°21'18 1.2
2017-Sep-17 20:39N 45°19' W 083°25'2 8.1
2017-Sep-17 20:27N 45°20' W 083°27'4 7.9
2017-Sep-17 20:00N 45°23' W 083°30'4 8.1
2017-Sep-17 19:30N 45°25' W 083°36'4 8.1
2017-Sep-17 19:00N 45°27' W 083°41'4 8.1
2017-Sep-17 18:30N 45°29' W 083°46'4 8.0
2017-Sep-17 18:00N 45°31' W 083°51'4 8.1
2017-Sep-17 17:28N 45°33' W 083°56'4 8.1
2017-Sep-17 17:00N 45°34' W 084°01'4 8.1
2017-Sep-17 16:30N 45°36' W 084°06'4 8.1
2017-Sep-17 16:00N 45°38' W 084°11'4 8.3
2017-Sep-17 15:30N 45°40' W 084°16'4 8.3
2017-Sep-17 15:00N 45°41' W 084°22'4 8.6
2017-Sep-17 14:30N 45°42' W 084°28'4 8.4
2017-Sep-17 14:00N 45°44' W 084°33'4 8.3
2017-Sep-17 13:30N 45°47' W 084°38'4 8.4
2017-Sep-17 13:00N 45°49' W 084°43'4 8.5
2017-Sep-17 12:30N 45°49' W 084°49'4 8.4
2017-Sep-17 12:00N 45°49' W 084°55'4 8.2
2017-Sep-17 11:30N 45°49' W 085°01'4 8.0
2017-Sep-17 11:00N 45°50' W 085°07'4 7.1
2017-Sep-17 10:30N 45°46' W 085°09'4 8.1
2017-Sep-17 10:00N 45°43' W 085°12'4 8.3
2017-Sep-17 09:30N 45°40' W 085°15'4 8.3
2017-Sep-17 09:00N 45°36' W 085°19'4 8.4
2017-Sep-17 08:30N 45°33' W 085°22'4 8.4
2017-Sep-17 08:00N 45°29' W 085°26'4 8.5
2017-Sep-17 07:30N 45°26' W 085°30'4 8.5
2017-Sep-17 07:00N 45°22' W 085°33'4 8.4
2017-Sep-17 06:30N 45°19' W 085°37'4 8.4
2017-Sep-17 06:00N 45°16' W 085°40'4 8.3
2017-Sep-17 05:30N 45°12' W 085°44'4 8.2
2017-Sep-17 05:00N 45°09' W 085°47'  
2017-Sep-14 15:44N 44°55' W 087°35'2 7.9
2017-Sep-14 15:30N 44°57' W 087°34'9 7.9
2017-Sep-14 14:25N 45°03' W 087°25'5 8.0
2017-Sep-14 13:51N 45°06' W 087°21'16 7.8
2017-Sep-14 11:48N 45°19' W 087°07'4 8.2
2017-Sep-14 11:22N 45°21' W 087°03'3 8.2
2017-Sep-14 11:00N 45°23' W 087°00'4 8.0
2017-Sep-14 10:30N 45°26' W 086°56'4 8.1
2017-Sep-14 10:00N 45°26' W 086°50'4 7.9
2017-Sep-14 09:30N 45°26' W 086°45'4 7.9
2017-Sep-14 09:00N 45°27' W 086°39'4 7.8
2017-Sep-14 08:30N 45°27' W 086°34'4 8.1
2017-Sep-14 08:00N 45°28' W 086°28'4 8.1
2017-Sep-14 07:30N 45°28' W 086°22'4 8.1
2017-Sep-14 07:00N 45°29' W 086°16'4 8.2
2017-Sep-14 06:30N 45°29' W 086°11'4 8.2
2017-Sep-14 06:00N 45°30' W 086°05'4 8.2
2017-Sep-14 05:30N 45°31' W 085°59'4 8.1
2017-Sep-14 05:00N 45°31' W 085°53'4 8.0
2017-Sep-14 04:30N 45°32' W 085°48'4 8.1
2017-Sep-14 04:00N 45°32' W 085°42'4 8.1
2017-Sep-14 03:30N 45°33' W 085°36'4 8.0
2017-Sep-14 03:00N 45°34' W 085°30'4 8.1
2017-Sep-14 02:30N 45°36' W 085°26'4 8.2
2017-Sep-14 02:00N 45°39' W 085°21'4 8.2
2017-Sep-14 01:30N 45°41' W 085°17'4 8.2
2017-Sep-14 01:00N 45°44' W 085°12'4 7.6
2017-Sep-14 00:30N 45°47' W 085°09'3 6.7
2017-Sep-14 00:00N 45°49' W 085°06'4 8.1
2017-Sep-13 23:30N 45°49' W 085°00'4 8.2
2017-Sep-13 23:00N 45°49' W 084°54'4 8.2
2017-Sep-13 22:30N 45°49' W 084°48'4 8.0
2017-Sep-13 22:00N 45°49' W 084°43'4 7.9
2017-Sep-13 21:30N 45°47' W 084°38'4 8.0
2017-Sep-13 21:00N 45°45' W 084°33'4 8.3
2017-Sep-13 20:30N 45°43' W 084°28'4 8.4
2017-Sep-13 20:00N 45°41' W 084°22'4 8.1
2017-Sep-13 19:30N 45°41' W 084°16'4 8.4
2017-Sep-13 19:00N 45°39' W 084°11'4 8.4
2017-Sep-13 18:29N 45°37' W 084°06'4 8.5
2017-Sep-13 18:00N 45°35' W 084°01'4 8.5
2017-Sep-13 17:30N 45°33' W 083°55'4 8.5
2017-Sep-13 17:00N 45°31' W 083°50'4 8.5
2017-Sep-13 16:30N 45°29' W 083°45'4 8.5
2017-Sep-13 16:00N 45°27' W 083°39'4 8.4
2017-Sep-13 15:30N 45°25' W 083°34'4 8.4
2017-Sep-13 15:00N 45°23' W 083°29'11 8.2
2017-Sep-13 13:40N 45°14' W 083°19'9 8.1
2017-Sep-13 12:30N 45°06' W 083°14'11 7.8
2017-Sep-13 11:03N 44°54' W 083°10'0 8.2
2017-Sep-13 11:00N 44°54' W 083°10'28 0.6
2017-Sep-11 12:22N 45°22' W 083°10'4 8.1
2017-Sep-11 11:52N 45°26' W 083°11'3 8.1
2017-Sep-11 11:30N 45°29' W 083°12'4 8.3
2017-Sep-11 11:00N 45°33' W 083°12'4 8.3
2017-Sep-11 10:29N 45°37' W 083°13'4 8.3
2017-Sep-11 10:00N 45°41' W 083°13'24 7.5
2017-Sep-11 06:47N 46°04' W 083°25'  

Dump ship's entire track history